createdAt,value
2023-04-15T00:00:07.293Z,30.10
2023-04-15T00:00:17.342Z,29.90
2023-04-15T00:00:27.394Z,30.10
2023-04-15T00:00:37.442Z,30.60
2023-04-15T00:00:47.497Z,31.30
2023-04-15T00:00:57.570Z,30.60
2023-04-15T00:01:07.656Z,30.20
2023-04-15T00:01:17.693Z,29.90
2023-04-15T00:01:27.755Z,30.00
2023-04-15T00:01:37.839Z,30.50
2023-04-15T00:01:47.963Z,29.90
2023-04-15T00:01:58.079Z,30.60
2023-04-15T00:02:08.212Z,30.60
2023-04-15T00:02:18.223Z,30.90
2023-04-15T00:02:28.342Z,31.30
2023-04-15T00:02:38.431Z,31.50
2023-04-15T00:02:48.504Z,32.60
2023-04-15T00:02:58.707Z,33.10
2023-04-15T00:03:08.600Z,33.20
2023-04-15T00:03:18.684Z,33.30
2023-04-15T00:03:28.661Z,33.20
2023-04-15T00:03:38.731Z,33.90
2023-04-15T00:03:48.812Z,33.80
2023-04-15T00:03:58.848Z,32.90
2023-04-15T00:04:08.823Z,31.40
2023-04-15T00:04:18.882Z,30.60
2023-04-15T00:04:28.929Z,30.40
2023-04-15T00:04:38.914Z,30.50
2023-04-15T00:04:49.061Z,29.80
2023-04-15T00:04:58.986Z,29.80
2023-04-15T00:05:09.047Z,30.60
2023-04-15T00:05:19.097Z,31.50
2023-04-15T00:05:29.153Z,31.40
2023-04-15T00:05:39.216Z,31.20
2023-04-15T00:05:49.254Z,31.60
2023-04-15T00:05:59.292Z,31.40
2023-04-15T00:06:09.353Z,31.10
2023-04-15T00:06:19.415Z,30.50
2023-04-15T00:06:29.446Z,30.90
2023-04-15T00:06:39.497Z,31.40
2023-04-15T00:06:49.564Z,31.90
2023-04-15T00:06:59.624Z,31.90
2023-04-15T00:07:09.667Z,31.50
2023-04-15T00:07:19.719Z,31.70
2023-04-15T00:07:29.819Z,31.90
2023-04-15T00:07:39.881Z,31.60
2023-04-15T00:07:49.937Z,31.80
2023-04-15T00:07:59.988Z,30.90
2023-04-15T00:08:10.042Z,31.40
2023-04-15T00:08:20.102Z,31.70
2023-04-15T00:08:30.170Z,32.70
2023-04-15T00:08:40.193Z,32.70
2023-04-15T00:08:50.241Z,31.90
2023-04-15T00:09:00.463Z,31.90
2023-04-15T00:09:10.321Z,31.40
2023-04-15T00:09:20.386Z,31.80
2023-04-15T00:09:30.428Z,31.60
2023-04-15T00:09:40.477Z,32.70
2023-04-15T00:09:50.520Z,33.10
2023-04-15T00:10:00.588Z,33.90
2023-04-15T00:10:10.631Z,33.70
2023-04-15T00:10:20.684Z,32.70
2023-04-15T00:10:30.807Z,32.40
2023-04-15T00:10:40.860Z,31.70
2023-04-15T00:10:50.916Z,32.70
2023-04-15T00:11:00.962Z,32.20
2023-04-15T00:11:11.041Z,32.30
2023-04-15T00:11:21.093Z,32.20
2023-04-15T00:11:31.153Z,31.90
2023-04-15T00:11:41.191Z,32.70
2023-04-15T00:11:51.264Z,32.60
2023-04-15T00:12:01.312Z,33.30
2023-04-15T00:12:11.375Z,32.80
2023-04-15T00:12:21.424Z,32.40
2023-04-15T00:12:31.485Z,31.80
2023-04-15T00:12:41.529Z,31.60
2023-04-15T00:12:51.580Z,31.40
2023-04-15T00:13:01.613Z,31.60
2023-04-15T00:13:11.672Z,32.10
2023-04-15T00:13:21.728Z,32.50
2023-04-15T00:13:31.763Z,31.50
2023-04-15T00:13:41.817Z,31.30
2023-04-15T00:13:51.864Z,31.20
2023-04-15T00:14:01.917Z,32.50
2023-04-15T00:14:11.970Z,32.60
2023-04-15T00:14:22.045Z,32.40
2023-04-15T00:14:32.090Z,31.90
2023-04-15T00:14:42.143Z,32.30
2023-04-15T00:14:52.188Z,32.80
2023-04-15T00:15:02.228Z,33.60
2023-04-15T00:15:12.308Z,32.30
2023-04-15T00:15:22.358Z,32.00
2023-04-15T00:15:32.401Z,31.90
2023-04-15T00:15:42.452Z,33.20
2023-04-15T00:15:52.518Z,33.40
2023-04-15T00:16:02.558Z,33.70
2023-04-15T00:16:12.630Z,34.00
2023-04-15T00:16:22.726Z,34.10
2023-04-15T00:16:32.785Z,33.50
2023-04-15T00:16:42.862Z,32.70
2023-04-15T00:16:52.910Z,33.10
2023-04-15T00:17:03.069Z,33.10
2023-04-15T00:17:13.101Z,34.00
2023-04-15T00:17:23.196Z,34.80
2023-04-15T00:17:33.223Z,34.40
2023-04-15T00:17:43.308Z,33.00
2023-04-15T00:17:53.407Z,32.80
2023-04-15T00:18:03.454Z,34.00
2023-04-15T00:18:13.490Z,34.40
2023-04-15T00:18:23.561Z,33.50
2023-04-15T00:18:33.610Z,32.80
2023-04-15T00:18:43.667Z,33.40
2023-04-15T00:18:53.732Z,33.60
2023-04-15T00:19:03.779Z,33.70
2023-04-15T00:19:13.851Z,33.10
2023-04-15T00:19:23.907Z,32.00
2023-04-15T00:19:33.960Z,31.60
2023-04-15T00:19:43.998Z,31.80
2023-04-15T00:19:54.034Z,32.50
2023-04-15T00:20:04.093Z,32.80
2023-04-15T00:20:14.143Z,32.70
2023-04-15T00:20:24.199Z,33.10
2023-04-15T00:20:34.259Z,33.00
2023-04-15T00:20:44.328Z,32.80
2023-04-15T00:20:54.360Z,31.80
2023-04-15T00:21:04.406Z,32.20
2023-04-15T00:21:14.467Z,33.00
2023-04-15T00:21:24.520Z,32.90
2023-04-15T00:21:34.574Z,32.30
2023-04-15T00:21:44.634Z,32.30
2023-04-15T00:21:54.680Z,32.40
2023-04-15T00:22:04.715Z,32.60
2023-04-15T00:22:14.771Z,32.50
2023-04-15T00:22:24.815Z,33.70
2023-04-15T00:22:34.867Z,34.30
2023-04-15T00:22:44.930Z,34.80
2023-04-15T00:22:55.011Z,35.00
2023-04-15T00:23:05.046Z,34.10
2023-04-15T00:23:15.101Z,33.50
2023-04-15T00:23:25.163Z,32.30
2023-04-15T00:23:35.233Z,32.20
2023-04-15T00:23:45.283Z,32.00
2023-04-15T00:23:55.337Z,32.50
2023-04-15T00:24:05.397Z,32.80
2023-04-15T00:24:15.477Z,33.20
2023-04-15T00:24:25.535Z,33.50
2023-04-15T00:24:35.590Z,33.90
2023-04-15T00:24:45.659Z,33.10
2023-04-15T00:24:55.707Z,33.10
2023-04-15T00:25:05.771Z,32.40
2023-04-15T00:25:15.841Z,33.20
2023-04-15T00:25:25.907Z,32.40
2023-04-15T00:25:35.952Z,31.20
2023-04-15T00:25:46.003Z,30.70
2023-04-15T00:25:56.054Z,31.70
2023-04-15T00:26:06.112Z,34.10
2023-04-15T00:26:16.170Z,34.10
2023-04-15T00:26:26.223Z,33.10
2023-04-15T00:26:36.279Z,32.90
2023-04-15T00:26:46.328Z,33.80
2023-04-15T00:26:56.377Z,34.90
2023-04-15T00:27:06.391Z,34.80
2023-04-15T00:27:16.396Z,34.00
2023-04-15T00:27:26.394Z,33.00
2023-04-15T00:27:36.400Z,32.60
2023-04-15T00:27:46.395Z,32.40
2023-04-15T00:27:56.410Z,32.60
2023-04-15T00:28:06.405Z,32.90
2023-04-15T00:28:16.412Z,33.80
2023-04-15T00:28:26.438Z,35.50
2023-04-15T00:28:36.443Z,35.50
2023-04-15T00:28:46.439Z,35.00
2023-04-15T00:28:56.447Z,33.80
2023-04-15T00:29:06.496Z,33.60
2023-04-15T00:29:16.529Z,33.40
2023-04-15T00:29:26.693Z,33.20
2023-04-15T00:29:36.720Z,33.20
2023-04-15T00:29:46.836Z,33.30
2023-04-15T00:29:56.860Z,33.80
2023-04-15T00:30:06.856Z,34.30
2023-04-15T00:30:16.916Z,33.90
2023-04-15T00:30:26.945Z,33.50
2023-04-15T00:30:36.970Z,33.50
2023-04-15T00:30:46.983Z,34.50
2023-04-15T00:30:57.004Z,34.10
2023-04-15T00:31:07.014Z,33.60
2023-04-15T00:31:17.179Z,33.20
2023-04-15T00:31:27.090Z,33.30
2023-04-15T00:31:37.068Z,32.70
2023-04-15T00:31:47.090Z,33.20
2023-04-15T00:31:57.121Z,33.90
2023-04-15T00:32:07.141Z,35.30
2023-04-15T00:32:17.170Z,35.00
2023-04-15T00:32:27.266Z,35.50
2023-04-15T00:32:37.307Z,35.60
2023-04-15T00:32:47.317Z,35.10
2023-04-15T00:32:57.298Z,34.90
2023-04-15T00:33:07.308Z,34.20
2023-04-15T00:33:17.304Z,34.20
2023-04-15T00:33:27.467Z,34.60
2023-04-15T00:33:37.484Z,34.30
2023-04-15T00:33:47.516Z,34.80
2023-04-15T00:33:57.509Z,34.10
2023-04-15T00:34:07.540Z,33.50
2023-04-15T00:34:17.603Z,33.00
2023-04-15T00:34:27.626Z,32.80
2023-04-15T00:34:37.652Z,33.00
2023-04-15T00:34:47.667Z,33.00
2023-04-15T00:34:57.673Z,33.60
2023-04-15T00:35:07.694Z,34.10
2023-04-15T00:35:17.694Z,35.30
2023-04-15T00:35:27.749Z,36.30
2023-04-15T00:35:37.755Z,37.60
2023-04-15T00:35:47.761Z,41.90
2023-04-15T00:35:57.773Z,46.60
2023-04-15T00:36:07.812Z,49.10
2023-04-15T00:36:17.823Z,48.20
2023-04-15T00:36:27.808Z,44.40
2023-04-15T00:36:37.819Z,41.10
2023-04-15T00:36:47.839Z,38.60
2023-04-15T00:36:57.874Z,37.70
2023-04-15T00:37:07.898Z,37.90
2023-04-15T00:37:17.908Z,36.30
2023-04-15T00:37:27.957Z,36.00
2023-04-15T00:37:38.013Z,36.10
2023-04-15T00:37:48.038Z,36.60
2023-04-15T00:37:58.043Z,36.60
2023-04-15T00:38:08.064Z,36.90
2023-04-15T00:38:18.079Z,37.30
2023-04-15T00:38:28.100Z,37.30
2023-04-15T00:38:38.111Z,37.00
2023-04-15T00:38:48.108Z,37.30
2023-04-15T00:38:58.256Z,37.40
2023-04-15T00:39:08.135Z,37.30
2023-04-15T00:39:18.176Z,36.80
2023-04-15T00:39:28.210Z,36.70
2023-04-15T00:39:38.227Z,36.20
2023-04-15T00:39:48.243Z,36.30
2023-04-15T00:39:58.256Z,36.70
2023-04-15T00:40:08.283Z,37.30
2023-04-15T00:40:18.298Z,36.30
2023-04-15T00:40:28.311Z,35.10
2023-04-15T00:40:38.415Z,35.00
2023-04-15T00:40:48.456Z,35.40
2023-04-15T00:40:58.480Z,36.20
2023-04-15T00:41:08.513Z,35.40
2023-04-15T00:41:18.504Z,34.90
2023-04-15T00:41:28.497Z,34.30
2023-04-15T00:41:38.659Z,34.20
2023-04-15T00:41:48.711Z,34.20
2023-04-15T00:41:58.726Z,34.00
2023-04-15T00:42:08.755Z,34.90
2023-04-15T00:42:18.780Z,35.40
2023-04-15T00:42:28.802Z,35.90
2023-04-15T00:42:38.824Z,36.20
2023-04-15T00:42:48.841Z,35.20
2023-04-15T00:42:58.877Z,35.10
2023-04-15T00:43:08.939Z,34.20
2023-04-15T00:43:18.937Z,35.50
2023-04-15T00:43:28.945Z,36.40
2023-04-15T00:43:38.950Z,37.60
2023-04-15T00:43:48.978Z,37.00
2023-04-15T00:43:58.982Z,35.90
2023-04-15T00:44:09.017Z,35.10
2023-04-15T00:44:19.049Z,35.80
2023-04-15T00:44:29.055Z,36.00
2023-04-15T00:44:39.067Z,35.50
2023-04-15T00:44:49.082Z,35.50
2023-04-15T00:44:59.160Z,36.00
2023-04-15T00:45:09.189Z,36.10
2023-04-15T00:45:19.213Z,35.40
2023-04-15T00:45:29.307Z,35.00
2023-04-15T00:45:39.322Z,35.20
2023-04-15T00:45:49.335Z,35.00
2023-04-15T00:45:59.363Z,34.20
2023-04-15T00:46:09.418Z,34.20
2023-04-15T00:46:19.454Z,34.10
2023-04-15T00:46:29.442Z,35.10
2023-04-15T00:46:39.467Z,35.70
2023-04-15T00:46:49.521Z,36.40
2023-04-15T00:46:59.543Z,35.80
2023-04-15T00:47:09.591Z,35.30
2023-04-15T00:47:19.591Z,35.20
2023-04-15T00:47:29.611Z,35.80
2023-04-15T00:47:39.602Z,36.00
2023-04-15T00:47:49.652Z,36.10
2023-04-15T00:47:59.679Z,35.50
2023-04-15T00:48:09.684Z,36.00
2023-04-15T00:48:19.685Z,36.40
2023-04-15T00:48:29.687Z,36.50
2023-04-15T00:48:39.690Z,36.50
2023-04-15T00:48:49.714Z,36.70
2023-04-15T00:48:59.968Z,37.40
2023-04-15T00:49:09.733Z,36.70
2023-04-15T00:49:19.731Z,37.10
2023-04-15T00:49:29.740Z,37.40
2023-04-15T00:49:39.731Z,37.90
2023-04-15T00:49:49.732Z,36.70
2023-04-15T00:49:59.722Z,36.10
2023-04-15T00:50:19.843Z,36.10
2023-04-15T00:50:29.865Z,36.40
2023-04-15T00:50:39.883Z,36.50
2023-04-15T00:50:49.909Z,37.60
2023-04-15T00:50:59.949Z,38.00
2023-04-15T00:51:10.001Z,40.40
2023-04-15T00:51:20.018Z,43.50
2023-04-15T00:51:30.060Z,45.00
2023-04-15T00:51:40.106Z,42.70
2023-04-15T00:51:50.152Z,40.30
2023-04-15T00:52:00.219Z,39.70
2023-04-15T00:52:10.252Z,40.60
2023-04-15T00:52:20.270Z,39.60
2023-04-15T00:52:30.336Z,38.60
2023-04-15T00:52:40.354Z,37.60
2023-04-15T00:52:50.391Z,37.50
2023-04-15T00:53:00.440Z,37.70
2023-04-15T00:53:10.512Z,37.40
2023-04-15T00:53:20.571Z,37.10
2023-04-15T00:53:30.605Z,36.30
2023-04-15T00:53:40.654Z,36.60
2023-04-15T00:53:50.718Z,37.20
2023-04-15T00:54:00.775Z,38.10
2023-04-15T00:54:10.867Z,38.40
2023-04-15T00:54:20.911Z,37.80
2023-04-15T00:54:30.976Z,39.00
2023-04-15T00:54:41.028Z,38.30
2023-04-15T00:54:51.073Z,40.00
2023-04-15T00:55:01.144Z,39.50
2023-04-15T00:55:11.165Z,39.80
2023-04-15T00:55:21.208Z,39.40
2023-04-15T00:55:31.282Z,39.70
2023-04-15T00:55:41.335Z,39.40
2023-04-15T00:55:51.388Z,40.30
2023-04-15T00:56:01.433Z,39.50
2023-04-15T00:56:11.471Z,38.70
2023-04-15T00:56:21.576Z,37.80
2023-04-15T00:56:31.617Z,37.40
2023-04-15T00:56:41.664Z,37.40
2023-04-15T00:56:51.727Z,36.90
2023-04-15T00:57:01.847Z,37.60
2023-04-15T00:57:11.773Z,37.90
2023-04-15T00:57:21.816Z,37.20
2023-04-15T00:57:31.865Z,36.70
2023-04-15T00:57:41.922Z,35.70
2023-04-15T00:57:51.965Z,36.30
2023-04-15T00:58:02.013Z,36.90
2023-04-15T00:58:12.064Z,37.20
2023-04-15T00:58:22.102Z,36.90
2023-04-15T00:58:32.141Z,36.10
2023-04-15T00:58:42.182Z,36.90
2023-04-15T00:58:52.208Z,37.80
2023-04-15T00:59:02.509Z,37.90
2023-04-15T00:59:12.409Z,38.10
2023-04-15T00:59:22.467Z,37.40
2023-04-15T00:59:32.491Z,37.90
2023-04-15T00:59:42.531Z,38.00
2023-04-15T00:59:52.563Z,38.80
2023-04-15T01:00:02.657Z,38.50
2023-04-15T01:00:12.647Z,37.00
2023-04-15T01:00:22.698Z,36.40
2023-04-15T01:00:32.768Z,37.70
2023-04-15T01:00:42.800Z,38.20
2023-04-15T01:00:52.854Z,38.50
2023-04-15T01:01:02.901Z,36.80
2023-04-15T01:01:13.017Z,37.20
2023-04-15T01:01:23.090Z,37.30
2023-04-15T01:01:33.220Z,38.00
2023-04-15T01:01:43.200Z,37.70
2023-04-15T01:01:53.322Z,38.00
2023-04-15T01:02:03.363Z,37.40
2023-04-15T01:02:13.403Z,37.90
2023-04-15T01:02:23.435Z,36.70
2023-04-15T01:02:33.556Z,36.50
2023-04-15T01:02:43.468Z,36.40
2023-04-15T01:02:53.520Z,36.20
2023-04-15T01:03:03.599Z,36.40
2023-04-15T01:03:13.609Z,36.30
2023-04-15T01:03:23.921Z,36.70
2023-04-15T01:03:33.835Z,37.50
2023-04-15T01:03:43.835Z,36.90
2023-04-15T01:03:53.893Z,36.60
2023-04-15T01:04:04.017Z,36.50
2023-04-15T01:04:14.020Z,37.30
2023-04-15T01:04:23.964Z,37.60
2023-04-15T01:04:34.126Z,36.50
2023-04-15T01:04:44.183Z,35.80
2023-04-15T01:04:54.238Z,36.60
2023-04-15T01:05:04.284Z,37.50
2023-04-15T01:05:14.336Z,38.30
2023-04-15T01:05:24.383Z,38.00
2023-04-15T01:05:34.466Z,38.20
2023-04-15T01:05:44.545Z,37.00
2023-04-15T01:05:54.605Z,36.20
2023-04-15T01:06:04.665Z,35.40
2023-04-15T01:06:14.731Z,35.50
2023-04-15T01:06:24.767Z,35.80
2023-04-15T01:06:34.802Z,36.90
2023-04-15T01:06:44.885Z,37.50
2023-04-15T01:06:54.930Z,37.10
2023-04-15T01:07:04.977Z,36.70
2023-04-15T01:07:15.013Z,37.40
2023-04-15T01:07:25.068Z,38.00
2023-04-15T01:07:35.111Z,38.10
2023-04-15T01:07:45.170Z,37.60
2023-04-15T01:07:55.206Z,37.10
2023-04-15T01:08:05.239Z,37.10
2023-04-15T01:08:15.298Z,37.70
2023-04-15T01:08:25.337Z,38.10
2023-04-15T01:08:35.376Z,39.00
2023-04-15T01:08:45.415Z,37.90
2023-04-15T01:08:55.463Z,36.70
2023-04-15T01:09:05.507Z,36.20
2023-04-15T01:09:15.545Z,36.20
2023-04-15T01:09:25.574Z,37.00
2023-04-15T01:09:35.638Z,37.60
2023-04-15T01:09:45.702Z,38.80
2023-04-15T01:09:55.741Z,38.40
2023-04-15T01:10:05.777Z,38.10
2023-04-15T01:10:15.800Z,38.10
2023-04-15T01:10:25.839Z,38.30
2023-04-15T01:10:35.867Z,38.40
2023-04-15T01:10:45.898Z,37.20
2023-04-15T01:10:55.930Z,36.90
2023-04-15T01:11:05.978Z,36.50
2023-04-15T01:11:16.024Z,37.30
2023-04-15T01:11:26.055Z,37.80
2023-04-15T01:11:36.101Z,37.80
2023-04-15T01:11:46.179Z,37.60
2023-04-15T01:11:56.213Z,37.50
2023-04-15T01:12:06.258Z,38.70
2023-04-15T01:12:16.296Z,38.30
2023-04-15T01:12:26.340Z,38.60
2023-04-15T01:12:36.376Z,37.50
2023-04-15T01:12:46.446Z,38.30
2023-04-15T01:12:56.471Z,37.60
2023-04-15T01:13:06.532Z,38.00
2023-04-15T01:13:16.556Z,38.60
2023-04-15T01:13:26.613Z,38.90
2023-04-15T01:13:36.661Z,37.90
2023-04-15T01:13:46.702Z,37.20
2023-04-15T01:13:56.756Z,36.80
2023-04-15T01:14:06.791Z,36.70
2023-04-15T01:14:16.828Z,37.60
2023-04-15T01:14:26.870Z,38.20
2023-04-15T01:14:36.937Z,39.30
2023-04-15T01:14:46.980Z,37.90
2023-04-15T01:14:57.043Z,38.80
2023-04-15T01:15:07.096Z,38.50
2023-04-15T01:15:17.138Z,38.60
2023-04-15T01:15:27.185Z,38.20
2023-04-15T01:15:37.230Z,38.50
2023-04-15T01:15:47.323Z,38.00
2023-04-15T01:15:57.377Z,37.80
2023-04-15T01:16:07.490Z,37.30
2023-04-15T01:16:17.552Z,37.90
2023-04-15T01:16:27.708Z,37.30
2023-04-15T01:16:37.627Z,37.20
2023-04-15T01:16:47.690Z,37.30
2023-04-15T01:16:57.802Z,38.00
2023-04-15T01:17:07.845Z,38.30
2023-04-15T01:17:17.897Z,37.60
2023-04-15T01:17:27.992Z,37.80
2023-04-15T01:17:38.112Z,38.10
2023-04-15T01:17:48.184Z,39.00
2023-04-15T01:17:58.264Z,39.20
2023-04-15T01:18:08.308Z,38.80
2023-04-15T01:18:18.359Z,38.90
2023-04-15T01:18:28.421Z,38.60
2023-04-15T01:18:38.476Z,39.40
2023-04-15T01:18:48.535Z,39.00
2023-04-15T01:18:58.909Z,38.60
2023-04-15T01:19:08.636Z,37.60
2023-04-15T01:19:18.692Z,37.50
2023-04-15T01:19:28.739Z,38.10
2023-04-15T01:19:38.781Z,38.10
2023-04-15T01:19:48.828Z,37.60
2023-04-15T01:19:58.868Z,38.30
2023-04-15T01:20:08.933Z,39.30
2023-04-15T01:20:18.974Z,39.10
2023-04-15T01:20:29.042Z,38.50
2023-04-15T01:20:39.085Z,38.00
2023-04-15T01:20:49.132Z,39.30
2023-04-15T01:20:59.188Z,38.90
2023-04-15T01:21:09.233Z,38.60
2023-04-15T01:21:19.306Z,37.90
2023-04-15T01:21:29.336Z,38.50
2023-04-15T01:21:39.386Z,38.80
2023-04-15T01:21:49.476Z,38.80
2023-04-15T01:21:59.524Z,39.10
2023-04-15T01:22:09.575Z,39.10
2023-04-15T01:22:19.643Z,39.70
2023-04-15T01:22:29.684Z,39.20
2023-04-15T01:22:39.733Z,39.60
2023-04-15T01:22:49.792Z,39.30
2023-04-15T01:22:59.847Z,39.30
2023-04-15T01:23:09.889Z,38.60
2023-04-15T01:23:19.989Z,38.60
2023-04-15T01:23:30.028Z,38.20
2023-04-15T01:23:40.111Z,37.90
2023-04-15T01:23:50.166Z,37.40
2023-04-15T01:24:00.225Z,37.60
2023-04-15T01:24:10.300Z,37.50
2023-04-15T01:24:20.348Z,38.20
2023-04-15T01:24:30.553Z,38.20
2023-04-15T01:24:40.423Z,38.70
2023-04-15T01:24:50.481Z,38.60
2023-04-15T01:25:00.542Z,38.50
2023-04-15T01:25:10.607Z,39.20
2023-04-15T01:25:20.655Z,39.40
2023-04-15T01:25:30.709Z,40.10
2023-04-15T01:25:40.765Z,38.90
2023-04-15T01:25:50.808Z,38.20
2023-04-15T01:26:00.883Z,37.80
2023-04-15T01:26:10.944Z,38.20
2023-04-15T01:26:21.010Z,38.30
2023-04-15T01:26:31.047Z,38.90
2023-04-15T01:26:41.099Z,39.90
2023-04-15T01:26:51.180Z,41.50
2023-04-15T01:27:01.215Z,41.40
2023-04-15T01:27:11.252Z,40.30
2023-04-15T01:27:21.317Z,38.20
2023-04-15T01:27:31.363Z,37.50
2023-04-15T01:27:41.423Z,38.80
2023-04-15T01:27:51.474Z,39.50
2023-04-15T01:28:01.575Z,39.40
2023-04-15T01:28:11.650Z,38.40
2023-04-15T01:28:21.743Z,38.40
2023-04-15T01:28:31.776Z,38.90
2023-04-15T01:28:41.831Z,38.70
2023-04-15T01:28:51.900Z,39.40
2023-04-15T01:29:02.076Z,39.40
2023-04-15T01:29:12.067Z,38.80
2023-04-15T01:29:22.105Z,38.70
2023-04-15T01:29:32.169Z,38.60
2023-04-15T01:29:42.223Z,39.80
2023-04-15T01:29:52.275Z,40.00
2023-04-15T01:30:02.390Z,40.20
2023-04-15T01:30:12.449Z,39.20
2023-04-15T01:30:22.484Z,38.60
2023-04-15T01:30:32.536Z,38.60
2023-04-15T01:30:42.578Z,38.60
2023-04-15T01:30:52.621Z,39.00
2023-04-15T01:31:02.709Z,39.30
2023-04-15T01:31:12.775Z,40.00
2023-04-15T01:31:22.921Z,40.10
2023-04-15T01:31:32.994Z,39.80
2023-04-15T01:31:43.034Z,40.10
2023-04-15T01:31:53.138Z,40.20
2023-04-15T01:32:03.182Z,40.00
2023-04-15T01:32:13.248Z,39.30
2023-04-15T01:32:23.318Z,39.90
2023-04-15T01:32:33.369Z,40.30
2023-04-15T01:32:43.451Z,40.70
2023-04-15T01:32:53.472Z,40.30
2023-04-15T01:33:03.551Z,40.00
2023-04-15T01:33:13.581Z,40.40
2023-04-15T01:33:23.649Z,40.20
2023-04-15T01:33:33.721Z,40.00
2023-04-15T01:33:43.769Z,39.20
2023-04-15T01:33:53.777Z,39.10
2023-04-15T01:34:03.795Z,38.60
2023-04-15T01:34:13.819Z,39.70
2023-04-15T01:34:23.825Z,39.40
2023-04-15T01:34:35.730Z,39.90
2023-04-15T01:34:44.110Z,39.40
2023-04-15T01:34:54.118Z,39.60
2023-04-15T01:35:04.143Z,39.80
2023-04-15T01:35:14.155Z,39.50
2023-04-15T01:35:24.206Z,39.30
2023-04-15T01:35:34.209Z,39.70
2023-04-15T01:35:44.242Z,39.80
2023-04-15T01:35:54.247Z,39.90
2023-04-15T01:36:04.276Z,39.50
2023-04-15T01:36:14.292Z,39.80
2023-04-15T01:36:24.327Z,39.00
2023-04-15T01:36:34.346Z,39.70
2023-04-15T01:36:44.367Z,39.20
2023-04-15T01:36:54.373Z,39.50
2023-04-15T01:37:04.387Z,38.10
2023-04-15T01:37:14.443Z,38.10
2023-04-15T01:37:24.480Z,39.10
2023-04-15T01:37:34.497Z,39.70
2023-04-15T01:37:44.523Z,39.10
2023-04-15T01:37:54.531Z,39.30
2023-04-15T01:38:04.557Z,39.40
2023-04-15T01:38:14.570Z,38.80
2023-04-15T01:38:24.611Z,38.60
2023-04-15T01:38:34.627Z,38.30
2023-04-15T01:38:44.647Z,39.90
2023-04-15T01:38:54.670Z,39.90
2023-04-15T01:39:04.703Z,39.80
2023-04-15T01:39:14.717Z,39.60
2023-04-15T01:39:24.729Z,39.10
2023-04-15T01:39:34.760Z,39.80
2023-04-15T01:39:44.809Z,39.30
2023-04-15T01:39:54.814Z,40.70
2023-04-15T01:40:04.820Z,40.30
2023-04-15T01:40:14.866Z,40.20
2023-04-15T01:40:24.880Z,38.90
2023-04-15T01:40:34.914Z,38.50
2023-04-15T01:40:44.956Z,38.80
2023-04-15T01:40:54.982Z,38.90
2023-04-15T01:41:04.997Z,38.80
2023-04-15T01:41:15.020Z,38.80
2023-04-15T01:41:25.026Z,39.20
2023-04-15T01:41:35.033Z,40.20
2023-04-15T01:41:45.030Z,39.60
2023-04-15T01:41:55.055Z,39.10
2023-04-15T01:42:05.071Z,38.20
2023-04-15T01:42:15.109Z,39.20
2023-04-15T01:42:25.162Z,40.60
2023-04-15T01:42:35.164Z,41.00
2023-04-15T01:42:45.180Z,40.10
2023-04-15T01:42:55.224Z,39.60
2023-04-15T01:43:05.244Z,39.50
2023-04-15T01:43:15.262Z,39.20
2023-04-15T01:43:25.275Z,40.00
2023-04-15T01:43:35.282Z,40.30
2023-04-15T01:43:45.288Z,40.50
2023-04-15T01:43:55.309Z,40.40
2023-04-15T01:44:05.324Z,39.70
2023-04-15T01:44:15.356Z,39.40
2023-04-15T01:44:25.383Z,38.50
2023-04-15T01:44:35.397Z,38.60
2023-04-15T01:44:45.397Z,38.50
2023-04-15T01:44:55.423Z,38.80
2023-04-15T01:45:05.433Z,39.70
2023-04-15T01:45:15.446Z,41.00
2023-04-15T01:45:25.465Z,40.20
2023-04-15T01:45:35.468Z,39.00
2023-04-15T01:45:45.512Z,37.20
2023-04-15T01:45:55.539Z,37.40
2023-04-15T01:46:05.568Z,38.60
2023-04-15T01:46:15.588Z,39.70
2023-04-15T01:46:25.634Z,39.40
2023-04-15T01:46:35.690Z,38.20
2023-04-15T01:46:45.713Z,38.70
2023-04-15T01:46:55.723Z,39.40
2023-04-15T01:47:05.747Z,40.20
2023-04-15T01:47:15.740Z,40.80
2023-04-15T01:47:25.816Z,40.70
2023-04-15T01:47:35.839Z,39.80
2023-04-15T01:47:45.916Z,39.30
2023-04-15T01:47:55.945Z,39.80
2023-04-15T01:48:05.947Z,40.20
2023-04-15T01:48:15.965Z,39.80
2023-04-15T01:48:25.979Z,39.70
2023-04-15T01:48:36.021Z,40.20
2023-04-15T01:48:46.009Z,40.00
2023-04-15T01:48:56.022Z,40.30
2023-04-15T01:49:06.050Z,39.50
2023-04-15T01:49:16.083Z,40.00
2023-04-15T01:49:26.088Z,40.30
2023-04-15T01:49:36.098Z,40.90
2023-04-15T01:49:46.128Z,40.50
2023-04-15T01:49:56.145Z,40.60
2023-04-15T01:50:06.184Z,41.40
2023-04-15T01:50:16.202Z,41.50
2023-04-15T01:50:26.253Z,41.10
2023-04-15T01:50:36.268Z,39.70
2023-04-15T01:50:46.271Z,40.00
2023-04-15T01:50:56.302Z,40.20
2023-04-15T01:51:06.308Z,41.30
2023-04-15T01:51:16.311Z,40.60
2023-04-15T01:51:26.338Z,39.80
2023-04-15T01:51:36.336Z,38.90
2023-04-15T01:51:46.340Z,38.80
2023-04-15T01:51:56.357Z,39.00
2023-04-15T01:52:06.444Z,39.10
2023-04-15T01:52:16.469Z,39.70
2023-04-15T01:52:26.486Z,39.40
2023-04-15T01:52:36.517Z,39.00
2023-04-15T01:52:46.542Z,39.20
2023-04-15T01:52:56.575Z,40.10
2023-04-15T01:53:06.603Z,41.10
2023-04-15T01:53:16.628Z,40.50
2023-04-15T01:53:26.716Z,39.60
2023-04-15T01:53:36.739Z,38.90
2023-04-15T01:53:46.871Z,38.40
2023-04-15T01:53:57.029Z,39.40
2023-04-15T01:54:07.178Z,39.50
2023-04-15T01:54:17.306Z,40.60
2023-04-15T01:54:27.464Z,40.80
2023-04-15T01:54:37.622Z,40.50
2023-04-15T01:54:47.747Z,39.00
2023-04-15T01:54:57.908Z,39.50
2023-04-15T01:55:08.107Z,40.60
2023-04-15T01:55:18.095Z,41.80
2023-04-15T01:55:28.253Z,42.20
2023-04-15T01:55:38.392Z,41.70
2023-04-15T01:55:48.538Z,41.30
2023-04-15T01:55:58.678Z,40.90
2023-04-15T01:56:08.816Z,41.00
2023-04-15T01:56:18.957Z,40.80
2023-04-15T01:56:29.102Z,40.00
2023-04-15T01:56:39.257Z,39.20
2023-04-15T01:56:49.395Z,39.90
2023-04-15T01:56:59.531Z,40.10
2023-04-15T01:57:09.691Z,40.70
2023-04-15T01:57:19.839Z,40.10
2023-04-15T01:57:29.982Z,39.30
2023-04-15T01:57:40.135Z,39.50
2023-04-15T01:57:50.273Z,40.30
2023-04-15T01:58:00.424Z,40.40
2023-04-15T01:58:10.551Z,39.50
2023-04-15T01:58:20.702Z,39.70
2023-04-15T01:58:30.848Z,40.20
2023-04-15T01:58:40.983Z,40.80
2023-04-15T01:58:51.145Z,39.80
2023-04-15T01:59:01.642Z,39.60
2023-04-15T01:59:11.303Z,39.00
2023-04-15T01:59:21.444Z,40.40
2023-04-15T01:59:31.609Z,40.90
2023-04-15T01:59:41.726Z,42.10
2023-04-15T01:59:51.861Z,41.30
2023-04-15T02:00:02.026Z,42.40
2023-04-15T02:00:11.997Z,41.30
2023-04-15T02:00:22.143Z,42.30
2023-04-15T02:00:32.270Z,42.00
2023-04-15T02:00:42.413Z,42.70
2023-04-15T02:00:52.589Z,41.60
2023-04-15T02:01:02.685Z,40.30
2023-04-15T02:01:12.700Z,40.60
2023-04-15T02:01:22.739Z,42.30
2023-04-15T02:01:32.735Z,43.90
2023-04-15T02:01:42.773Z,43.50
2023-04-15T02:01:52.827Z,41.90
2023-04-15T02:02:02.875Z,41.40
2023-04-15T02:02:12.978Z,42.30
2023-04-15T02:02:23.092Z,42.70
2023-04-15T02:02:33.217Z,42.00
2023-04-15T02:02:43.270Z,40.70
2023-04-15T02:02:53.170Z,40.70
2023-04-15T02:03:03.245Z,41.60
2023-04-15T02:03:13.378Z,41.20
2023-04-15T02:03:23.494Z,40.20
2023-04-15T02:03:33.505Z,39.50
2023-04-15T02:03:43.621Z,40.10
2023-04-15T02:03:53.691Z,41.50
2023-04-15T02:04:03.708Z,40.80
2023-04-15T02:04:13.705Z,40.50
2023-04-15T02:04:23.747Z,40.20
2023-04-15T02:04:33.756Z,41.50
2023-04-15T02:04:43.769Z,41.60
2023-04-15T02:04:53.767Z,42.00
2023-04-15T02:05:03.802Z,41.00
2023-04-15T02:05:13.815Z,40.60
2023-04-15T02:05:23.834Z,39.40
2023-04-15T02:05:33.860Z,39.80
2023-04-15T02:05:43.893Z,39.90
2023-04-15T02:05:53.927Z,40.80
2023-04-15T02:06:03.954Z,41.10
2023-04-15T02:06:13.967Z,41.30
2023-04-15T02:06:23.983Z,41.30
2023-04-15T02:06:34.009Z,41.10
2023-04-15T02:06:44.016Z,41.30
2023-04-15T02:06:54.033Z,40.40
2023-04-15T02:07:04.108Z,39.40
2023-04-15T02:07:14.135Z,38.90
2023-04-15T02:07:24.150Z,39.20
2023-04-15T02:07:34.164Z,39.30
2023-04-15T02:07:44.187Z,39.70
2023-04-15T02:07:54.193Z,39.80
2023-04-15T02:08:04.209Z,40.30
2023-04-15T02:08:14.246Z,40.40
2023-04-15T02:08:24.248Z,40.90
2023-04-15T02:08:34.250Z,41.30
2023-04-15T02:08:44.260Z,41.20
2023-04-15T02:08:54.325Z,39.40
2023-04-15T02:09:04.329Z,39.20
2023-04-15T02:09:14.353Z,38.80
2023-04-15T02:09:24.358Z,40.50
2023-04-15T02:09:34.359Z,40.80